createdAt,value
2018-11-10T00:01:25.736Z,98924.05
2018-11-10T00:06:19.285Z,98923.21
2018-11-10T00:11:12.783Z,98923.24
2018-11-10T00:16:06.279Z,98922.72
2018-11-10T00:20:59.547Z,98925.69
2018-11-10T00:25:53.003Z,98924.67
2018-11-10T00:30:46.982Z,98925.12
2018-11-10T00:35:40.540Z,98920.80
2018-11-10T00:40:34.015Z,98920.64
2018-11-10T00:45:27.495Z,98914.38
2018-11-10T00:50:21.038Z,98915.07
2018-11-10T00:55:14.609Z,98915.47
2018-11-10T01:00:09.925Z,98912.30
2018-11-10T01:05:03.707Z,98912.13
2018-11-10T01:09:57.624Z,98905.09
2018-11-10T01:14:51.260Z,98905.67
2018-11-10T01:19:45.216Z,98896.09
2018-11-10T01:24:39.373Z,98902.95
2018-11-10T01:29:33.412Z,98898.64
2018-11-10T01:34:27.000Z,98894.63
2018-11-10T01:39:21.601Z,98894.09
2018-11-10T01:44:15.284Z,98892.66
2018-11-10T01:49:08.780Z,98890.30
2018-11-10T01:54:02.408Z,98892.30
2018-11-10T01:58:56.561Z,98889.94
2018-11-10T02:03:50.488Z,98887.05
2018-11-10T02:08:44.133Z,98886.53
2018-11-10T02:13:37.624Z,98884.88
2018-11-10T02:18:31.297Z,98882.85
2018-11-10T02:23:25.028Z,98884.47
2018-11-10T02:28:18.650Z,98884.28
2018-11-10T02:33:12.144Z,98878.36
2018-11-10T02:38:05.603Z,98880.32
2018-11-10T02:42:59.104Z,98876.52
2018-11-10T02:47:52.534Z,98878.16
2018-11-10T02:52:46.642Z,98881.42
2018-11-10T02:57:40.679Z,98866.78
2018-11-10T03:02:34.186Z,98873.31
2018-11-10T03:07:27.587Z,98872.74
2018-11-10T03:12:21.207Z,98868.95
2018-11-10T03:17:15.268Z,98865.68
2018-11-10T03:22:08.727Z,98866.73
2018-11-10T03:27:02.248Z,98868.82
2018-11-10T03:31:56.166Z,98872.67
2018-11-10T03:36:49.762Z,98878.25
2018-11-10T03:41:43.129Z,98882.25
2018-11-10T03:46:36.546Z,98879.14
2018-11-10T03:51:29.997Z,98880.94
2018-11-10T03:56:23.491Z,98878.80
2018-11-10T04:01:17.104Z,98882.36
2018-11-10T04:06:10.410Z,98887.17
2018-11-10T04:11:05.297Z,98887.63
2018-11-10T04:15:58.870Z,98891.94
2018-11-10T04:20:52.738Z,98885.33
2018-11-10T04:25:46.155Z,98895.19
2018-11-10T04:30:40.121Z,98888.00
2018-11-10T04:35:33.666Z,98884.59
2018-11-10T04:40:27.187Z,98887.92
2018-11-10T04:45:20.546Z,98899.89
2018-11-10T04:50:14.386Z,98894.52
2018-11-10T04:55:08.768Z,98898.68
2018-11-10T05:00:02.276Z,98902.16
2018-11-10T05:04:55.807Z,98901.23
2018-11-10T05:09:49.344Z,98904.69
2018-11-10T05:14:42.782Z,98905.97
2018-11-10T05:19:36.260Z,98903.97
2018-11-10T05:24:29.892Z,98911.91
2018-11-10T05:29:23.426Z,98913.71
2018-11-10T05:34:16.909Z,98919.71
2018-11-10T05:39:10.797Z,98923.71
2018-11-10T05:44:04.377Z,98926.08
2018-11-10T05:48:58.288Z,98920.28
2018-11-10T05:53:52.623Z,98930.43
2018-11-10T05:58:45.994Z,98933.69
2018-11-10T06:03:39.460Z,98934.78
2018-11-10T06:08:32.961Z,98932.42
2018-11-10T06:13:26.438Z,98933.86
2018-11-10T06:18:19.975Z,98932.74
2018-11-10T06:23:14.299Z,98934.91
2018-11-10T06:28:07.721Z,98933.44
2018-11-10T06:33:01.639Z,98935.59
2018-11-10T06:37:55.063Z,98937.78
2018-11-10T06:42:49.360Z,98928.77
2018-11-10T06:47:43.002Z,98928.23
2018-11-10T06:52:36.601Z,98935.11
2018-11-10T06:57:30.092Z,98936.73
2018-11-10T07:02:23.667Z,98938.73
2018-11-10T07:07:17.235Z,98935.27
2018-11-10T07:12:10.769Z,98933.83
2018-11-10T07:17:04.270Z,98938.83
2018-11-10T07:21:57.715Z,98933.91
2018-11-10T07:26:51.279Z,98935.41
2018-11-10T07:31:44.846Z,98930.68
2018-11-10T07:36:38.394Z,98925.25
2018-11-10T07:41:31.945Z,98924.23
2018-11-10T07:46:25.427Z,98922.98
2018-11-10T07:51:19.049Z,98922.34
2018-11-10T07:56:12.681Z,98915.12
2018-11-10T08:01:06.594Z,98918.33
2018-11-10T08:06:00.262Z,98921.52
2018-11-10T08:10:53.838Z,98915.59
2018-11-10T08:15:47.335Z,98918.02
2018-11-10T08:20:40.775Z,98914.13
2018-11-10T08:25:34.368Z,98917.06
2018-11-10T08:30:27.766Z,98915.89
2018-11-10T08:35:21.321Z,98920.86
2018-11-10T08:40:16.423Z,98918.13
2018-11-10T08:45:11.423Z,98922.24
2018-11-10T08:50:05.873Z,98913.47
2018-11-10T08:54:59.401Z,98916.50
2018-11-10T08:59:54.174Z,98915.75
2018-11-10T09:04:47.781Z,98914.68
2018-11-10T09:09:41.348Z,98908.17
2018-11-10T09:14:34.859Z,98905.25
2018-11-10T09:19:28.460Z,98899.69
2018-11-10T09:24:22.300Z,98897.66
2018-11-10T09:29:16.007Z,98888.06
2018-11-10T09:34:09.410Z,98890.98
2018-11-10T09:39:03.465Z,98880.41
2018-11-10T09:43:56.995Z,98877.34
2018-11-10T09:48:50.525Z,98877.80
2018-11-10T09:53:44.088Z,98865.75
2018-11-10T09:58:37.482Z,98858.72
2018-11-10T10:03:31.285Z,98857.64
2018-11-10T10:08:24.805Z,98849.77
2018-11-10T10:13:18.135Z,98845.42
2018-11-10T10:18:11.942Z,98835.83
2018-11-10T10:23:05.982Z,98833.83
2018-11-10T10:27:59.496Z,98824.27
2018-11-10T10:32:53.035Z,98820.14
2018-11-10T10:37:47.633Z,98809.00
2018-11-10T10:42:41.123Z,98818.41
2018-11-10T10:47:34.596Z,98815.42
2018-11-10T10:52:28.219Z,98805.08
2018-11-10T10:57:21.762Z,98812.65
2018-11-10T11:02:20.670Z,98806.13
2018-11-10T11:07:14.164Z,98798.44
2018-11-10T11:12:07.757Z,98802.70
2018-11-10T11:17:01.216Z,98796.33
2018-11-10T11:21:54.917Z,98790.24
2018-11-10T11:26:48.413Z,98779.99
2018-11-10T11:31:42.195Z,98778.66
2018-11-10T11:36:35.804Z,98778.05
2018-11-10T11:41:29.928Z,98773.19
2018-11-10T11:46:23.354Z,98772.27
2018-11-10T11:51:18.412Z,98762.39
2018-11-10T11:56:12.365Z,98763.80
2018-11-10T12:01:06.008Z,98758.00
2018-11-10T12:05:59.507Z,98760.36
2018-11-10T12:10:52.895Z,98763.09
2018-11-10T12:15:46.463Z,98761.63
2018-11-10T12:20:40.039Z,98765.20
2018-11-10T12:25:33.613Z,98754.09
2018-11-10T12:30:27.306Z,98755.42
2018-11-10T12:35:20.842Z,98750.94
2018-11-10T12:40:14.617Z,98749.91
2018-11-10T12:45:09.610Z,98746.85
2018-11-10T12:50:03.184Z,98750.92
2018-11-10T12:54:56.859Z,98746.31
2018-11-10T12:59:50.262Z,98744.09
2018-11-10T13:04:43.820Z,98748.22
2018-11-10T13:09:37.343Z,98739.36
2018-11-10T13:14:30.878Z,98741.14
2018-11-10T13:19:24.235Z,98747.88
2018-11-10T13:24:17.794Z,98748.93
2018-11-10T13:29:11.275Z,98747.86
2018-11-10T13:34:05.095Z,98746.00
2018-11-10T13:38:58.495Z,98749.06
2018-11-10T13:43:52.166Z,98749.73
2018-11-10T13:48:45.774Z,98746.37
2018-11-10T13:53:39.251Z,98749.65
2018-11-10T13:58:32.786Z,98749.54
2018-11-10T14:03:26.287Z,98742.06
2018-11-10T14:08:19.648Z,98745.63
2018-11-10T14:13:13.124Z,98744.19
2018-11-10T14:18:06.788Z,98744.78
2018-11-10T14:23:00.409Z,98745.23
2018-11-10T14:27:54.318Z,98755.26
2018-11-10T14:32:47.975Z,98761.38
2018-11-10T14:37:41.536Z,98757.27
2018-11-10T14:42:34.946Z,98763.72
2018-11-10T14:47:28.413Z,98757.50
2018-11-10T14:52:22.027Z,98755.61
2018-11-10T14:57:15.591Z,98762.34
2018-11-10T15:02:09.182Z,98762.56
2018-11-10T15:07:02.661Z,98761.78
2018-11-10T15:11:56.170Z,98764.80
2018-11-10T15:16:49.624Z,98767.50
2018-11-10T15:21:43.028Z,98773.06
2018-11-10T15:26:36.837Z,98770.50
2018-11-10T15:31:30.419Z,98781.47
2018-11-10T15:36:23.972Z,98783.27
2018-11-10T15:41:17.327Z,98788.34
2018-11-10T15:46:10.972Z,98789.39
2018-11-10T15:51:04.741Z,98795.73
2018-11-10T15:55:58.244Z,98792.42
2018-11-10T16:00:51.793Z,98786.05
2018-11-10T16:05:45.227Z,98798.20
2018-11-10T16:10:40.039Z,98800.65
2018-11-10T16:15:33.844Z,98803.67
2018-11-10T16:20:27.588Z,98809.00
2018-11-10T16:25:21.758Z,98809.73
2018-11-10T16:30:16.932Z,98820.44
2018-11-10T16:35:10.504Z,98827.13
2018-11-10T16:40:05.723Z,98819.34
2018-11-10T16:44:59.295Z,98826.87
2018-11-10T16:49:52.724Z,98827.94
2018-11-10T16:54:46.526Z,98830.45
2018-11-10T16:59:40.097Z,98837.70
2018-11-10T17:04:33.596Z,98840.28
2018-11-10T17:09:27.169Z,98850.73
2018-11-10T17:14:20.683Z,98855.96
2018-11-10T17:19:14.694Z,98857.19
2018-11-10T17:24:08.756Z,98858.33
2018-11-10T17:29:02.494Z,98853.95
2018-11-10T17:33:56.528Z,98860.63
2018-11-10T17:38:49.967Z,98858.45
2018-11-10T17:43:43.662Z,98856.88
2018-11-10T17:48:37.469Z,98854.19
2018-11-10T17:53:31.043Z,98856.18
2018-11-10T17:58:24.785Z,98850.06
2018-11-10T18:03:18.267Z,98848.98
2018-11-10T18:08:11.864Z,98857.16
2018-11-10T18:13:05.480Z,98853.72
2018-11-10T18:17:59.115Z,98858.95
2018-11-10T18:22:52.660Z,98869.67
2018-11-10T18:27:46.224Z,98872.70
2018-11-10T18:32:39.763Z,98871.47
2018-11-10T18:37:33.319Z,98871.84
2018-11-10T18:42:27.250Z,98874.34
2018-11-10T18:47:20.658Z,98873.84
2018-11-10T18:52:15.665Z,98878.89
2018-11-10T18:57:09.250Z,98878.17
2018-11-10T19:02:02.667Z,98878.94
2018-11-10T19:06:56.147Z,98878.73
2018-11-10T19:11:49.646Z,98895.72
2018-11-10T19:16:43.016Z,98898.08
2018-11-10T19:21:36.461Z,98909.29
2018-11-10T19:26:30.317Z,98905.14
2018-11-10T19:31:23.746Z,98906.39
2018-11-10T19:36:17.530Z,98910.20
2018-11-10T19:41:11.137Z,98916.48
2018-11-10T19:46:04.996Z,98916.29
2018-11-10T19:50:58.731Z,98916.66
2018-11-10T19:55:52.470Z,98918.45
2018-11-10T20:00:46.316Z,98921.87
2018-11-10T20:05:39.916Z,98927.61
2018-11-10T20:10:33.528Z,98922.92
2018-11-10T20:15:27.028Z,98921.27
2018-11-10T20:20:20.395Z,98918.17
2018-11-10T20:25:15.165Z,98919.41
2018-11-10T20:30:12.650Z,98914.69
2018-11-10T20:35:07.240Z,98915.65
2018-11-10T20:40:00.886Z,98918.46
2018-11-10T20:44:54.504Z,98926.72
2018-11-10T20:49:47.908Z,98930.39
2018-11-10T20:54:41.406Z,98930.94
2018-11-10T20:59:34.929Z,98928.33
2018-11-10T21:04:28.407Z,98922.15
2018-11-10T21:09:21.925Z,98928.45
2018-11-10T21:14:15.438Z,98935.89
2018-11-10T21:19:08.875Z,98932.23
2018-11-10T21:24:02.413Z,98935.17
2018-11-10T21:28:55.999Z,98941.29
2018-11-10T21:33:49.490Z,98934.17
2018-11-10T21:38:42.933Z,98929.92
2018-11-10T21:43:36.859Z,98938.27
2018-11-10T21:48:30.458Z,98937.27
2018-11-10T21:53:23.866Z,98938.25
2018-11-10T21:58:17.254Z,98940.45
2018-11-10T22:03:10.733Z,98940.02
2018-11-10T22:08:04.266Z,98930.81
2018-11-10T22:12:57.801Z,98933.91
2018-11-10T22:17:51.411Z,98933.02
2018-11-10T22:22:44.971Z,98934.47
2018-11-10T22:27:41.102Z,98931.61
2018-11-10T22:32:34.582Z,98931.61
2018-11-10T22:37:28.053Z,98935.98
2018-11-10T22:42:21.478Z,98939.20
2018-11-10T22:47:14.918Z,98945.52
2018-11-10T22:52:08.344Z,98938.83
2018-11-10T22:57:01.901Z,98943.04
2018-11-10T23:01:55.340Z,98943.78
2018-11-10T23:06:48.821Z,98942.14
2018-11-10T23:11:42.275Z,98938.72
2018-11-10T23:16:35.590Z,98945.23
2018-11-10T23:21:29.037Z,98941.24
2018-11-10T23:26:22.520Z,98943.98
2018-11-10T23:31:15.892Z,98951.36
2018-11-10T23:36:09.439Z,98956.95
2018-11-10T23:41:03.815Z,98957.48
2018-11-10T23:45:57.205Z,98958.58
2018-11-10T23:50:50.650Z,98961.84
2018-11-10T23:55:44.157Z,98964.37
